createdAt,value
2023-04-02T00:00:36.514Z,-11185.50
2023-04-02T00:04:05.956Z,-11183.53
2023-04-02T00:07:33.339Z,-11180.72
2023-04-02T00:10:49.205Z,-11188.59
2023-04-02T00:13:55.465Z,-11183.69
2023-04-02T00:17:06.268Z,-11186.34
2023-04-02T00:20:20.205Z,-11189.44
2023-04-02T00:23:26.210Z,-11176.50
2023-04-02T00:26:37.925Z,-11184.94
2023-04-02T00:29:49.424Z,-11182.41
2023-04-02T00:32:56.188Z,-11178.47
2023-04-02T00:36:08.084Z,-11168.66
2023-04-02T00:39:19.700Z,-11166.97
2023-04-02T00:42:27.999Z,-11172.03
2023-04-02T00:45:38.057Z,-11168.09
2023-04-02T00:48:51.523Z,-11176.22
2023-04-02T00:52:01.860Z,-11164.16
2023-04-02T00:55:14.928Z,-11167.81
2023-04-02T00:58:27.480Z,-11165.56
2023-04-02T01:01:42.765Z,-11174.13
2023-04-02T01:04:54.728Z,-11170.91
2023-04-02T01:08:09.362Z,-11169.50
2023-04-02T01:11:33.370Z,-11174.69
2023-04-02T01:14:51.313Z,-11174.25
2023-04-02T01:18:31.507Z,-11177.50
2023-04-02T01:21:53.021Z,-11165.97
2023-04-02T01:24:59.759Z,-11161.75
2023-04-02T01:28:12.031Z,-11142.38
2023-04-02T01:31:20.242Z,-11141.81
2023-04-02T01:34:28.764Z,-11139.41
2023-04-02T01:37:45.088Z,-11142.94
2023-04-02T01:40:59.516Z,-11143.91
2023-04-02T01:44:09.429Z,-11136.88
2023-04-02T01:47:20.540Z,-11152.34
2023-04-02T01:50:32.283Z,-11174.53
2023-04-02T01:53:38.724Z,-11168.94
2023-04-02T01:56:45.840Z,-11173.16
2023-04-02T01:59:52.499Z,-11170.34
2023-04-02T02:03:02.414Z,-11167.81
2023-04-02T02:06:12.675Z,-11170.34
2023-04-02T02:09:24.248Z,-11172.44
2023-04-02T02:12:30.288Z,-11175.09
2023-04-02T02:15:37.752Z,-11173.97
2023-04-02T02:18:46.015Z,-11178.75
2023-04-02T02:21:54.514Z,-11180.88
2023-04-02T02:25:05.435Z,-11183.53
2023-04-02T02:28:15.422Z,-11188.59
2023-04-02T02:31:28.094Z,-11186.78
2023-04-02T02:34:41.738Z,-11192.81
2023-04-02T02:37:56.546Z,-11192.13
2023-04-02T02:41:08.969Z,-11187.91
2023-04-02T02:44:20.032Z,-11191.13
2023-04-02T02:47:29.473Z,-11194.22
2023-04-02T02:50:37.430Z,-11200.84
2023-04-02T02:53:50.908Z,-11193.09
2023-04-02T02:57:02.455Z,-11166.25
2023-04-02T03:00:13.166Z,-11146.00
2023-04-02T03:03:23.504Z,-11147.84
2023-04-02T03:06:31.486Z,-11145.72
2023-04-02T03:09:44.773Z,-11139.13
2023-04-02T03:12:57.769Z,-11140.69
2023-04-02T03:16:08.184Z,-11148.13
2023-04-02T03:19:27.724Z,-11146.28
2023-04-02T03:22:39.887Z,-11146.00
2023-04-02T03:25:53.681Z,-11150.38
2023-04-02T03:29:04.078Z,-11136.03
2023-04-02T03:32:18.342Z,-11154.44
2023-04-02T03:35:30.658Z,-11152.34
2023-04-02T03:38:44.908Z,-11151.22
2023-04-02T03:41:56.482Z,-11132.38
2023-04-02T03:45:08.890Z,-11148.97
2023-04-02T03:48:19.972Z,-11145.59
2023-04-02T03:51:31.850Z,-11140.25
2023-04-02T03:54:39.442Z,-11145.88
2023-04-02T03:57:53.945Z,-11158.53
2023-04-02T04:01:07.331Z,-11156.00
2023-04-02T04:04:19.141Z,-11159.22
2023-04-02T04:07:33.950Z,-11151.78
2023-04-02T04:10:44.209Z,-11149.25
2023-04-02T04:13:56.521Z,-11158.66
2023-04-02T04:17:13.980Z,-11155.00
2023-04-02T04:20:23.380Z,-11152.06
2023-04-02T04:23:32.898Z,-11154.72
2023-04-02T04:26:49.830Z,-11148.41
2023-04-02T04:30:05.552Z,-11144.63
2023-04-02T04:33:22.864Z,-11138.84
2023-04-02T04:36:33.806Z,-11146.28
2023-04-02T04:39:46.136Z,-11127.75
2023-04-02T04:42:58.176Z,-11131.53
2023-04-02T04:46:07.548Z,-11132.94
2023-04-02T04:49:20.162Z,-11132.38
2023-04-02T04:52:29.231Z,-11138.84
2023-04-02T04:55:40.937Z,-11140.81
2023-04-02T04:58:53.781Z,-11142.22
2023-04-02T05:02:06.269Z,-11144.19
2023-04-02T05:05:29.310Z,-11165.97
2023-04-02T05:08:40.398Z,-11178.06
2023-04-02T05:11:50.494Z,-11159.66
2023-04-02T05:15:01.828Z,-11168.66
2023-04-02T05:18:22.209Z,-11177.91
2023-04-02T05:21:35.338Z,-11172.88
2023-04-02T05:24:49.874Z,-11179.59
2023-04-02T05:28:01.431Z,-11186.63
2023-04-02T05:31:13.572Z,-11183.81
2023-04-02T05:34:26.208Z,-11176.09
2023-04-02T05:37:32.842Z,-11186.06
2023-04-02T05:40:45.251Z,-11188.59
2023-04-02T05:44:01.426Z,-11191.13
2023-04-02T05:47:15.653Z,-11184.81
2023-04-02T05:50:30.467Z,-11176.38
2023-04-02T05:53:41.267Z,-11179.19
2023-04-02T05:56:51.592Z,-11191.00
2023-04-02T06:00:01.455Z,-11189.16
2023-04-02T06:03:19.002Z,-11196.19
2023-04-02T06:06:34.931Z,-11195.06
2023-04-02T06:09:46.087Z,-11190.56
2023-04-02T06:12:58.224Z,-11190.56
2023-04-02T06:16:05.330Z,-11200.28
2023-04-02T06:19:20.704Z,-11200.13
2023-04-02T06:22:36.261Z,-11200.00
2023-04-02T06:25:47.175Z,-11194.78
2023-04-02T06:28:59.611Z,-11202.94
2023-04-02T06:32:08.677Z,-11210.97
2023-04-02T06:35:17.211Z,-11207.16
2023-04-02T06:38:28.159Z,-11211.81
2023-04-02T06:41:34.510Z,-11214.75
2023-04-02T06:44:41.269Z,-11216.44
2023-04-02T06:47:50.149Z,-11222.06
2023-04-02T06:51:03.376Z,-11222.91
2023-04-02T06:54:16.257Z,-11225.44
2023-04-02T06:57:22.856Z,-11220.81
2023-04-02T07:00:36.380Z,-11227.84
2023-04-02T07:03:43.151Z,-11233.88
2023-04-02T07:06:51.216Z,-11236.72
2023-04-02T07:09:57.789Z,-11243.19
2023-04-02T07:13:04.286Z,-11251.91
2023-04-02T07:16:15.298Z,-11264.84
2023-04-02T07:19:23.068Z,-11280.03
2023-04-02T07:22:30.544Z,-11291.03
2023-04-02T07:25:36.775Z,-11309.59
2023-04-02T07:28:43.512Z,-11286.50
2023-04-02T07:31:49.849Z,-11311.84
2023-04-02T07:34:55.908Z,-11334.09
2023-04-02T07:38:03.176Z,-11331.16
2023-04-02T07:41:10.051Z,-11327.22
2023-04-02T07:44:16.393Z,-11316.09
2023-04-02T07:47:22.829Z,-11313.56
2023-04-02T07:50:29.566Z,-11326.06
2023-04-02T07:53:38.888Z,-11341.84
2023-04-02T07:56:45.538Z,-11332.13
2023-04-02T07:59:52.138Z,-11333.13
2023-04-02T08:02:58.839Z,-11337.34
2023-04-02T08:06:05.305Z,-11348.47
2023-04-02T08:09:13.205Z,-11356.66
2023-04-02T08:12:19.640Z,-11369.31
2023-04-02T08:15:26.221Z,-11356.50
2023-04-02T08:18:32.819Z,-11330.72
2023-04-02T08:21:39.404Z,-11364.81
2023-04-02T08:24:47.187Z,-11367.63
2023-04-02T08:27:53.771Z,-11349.88
2023-04-02T08:31:00.347Z,-11366.09
2023-04-02T08:34:06.625Z,-11355.50
2023-04-02T08:37:14.302Z,-11369.59
2023-04-02T08:40:27.035Z,-11373.13
2023-04-02T08:43:54.009Z,-11367.34
2023-04-02T08:47:04.353Z,-11372.28
2023-04-02T08:50:21.049Z,-11378.75
2023-04-02T08:53:32.035Z,-11352.13
2023-04-02T08:56:44.725Z,-11380.47
2023-04-02T08:59:59.395Z,-11390.47
2023-04-02T09:03:12.038Z,-11415.81
2023-04-02T09:06:21.025Z,-11435.84
2023-04-02T09:09:28.304Z,-11406.09
2023-04-02T09:12:36.831Z,-11386.50
2023-04-02T09:15:42.808Z,-11398.06
2023-04-02T09:18:51.506Z,-11404.41
2023-04-02T09:22:06.973Z,-11406.81
2023-04-02T09:25:17.640Z,-11382.44
2023-04-02T09:28:25.766Z,-11414.13
2023-04-02T09:31:37.961Z,-11423.16
2023-04-02T09:34:44.299Z,-11438.94
2023-04-02T09:38:18.973Z,-11445.44
2023-04-02T09:41:30.068Z,-11429.09
2023-04-02T09:44:37.700Z,-11433.16
2023-04-02T09:47:44.585Z,-11433.59
2023-04-02T09:50:50.857Z,-11436.56
2023-04-02T09:54:10.318Z,-11426.41
2023-04-02T09:57:24.356Z,-11432.47
2023-04-02T10:00:41.526Z,-11445.28
2023-04-02T10:03:48.169Z,-11435.97
2023-04-02T10:06:58.390Z,-11419.63
2023-04-02T10:10:17.477Z,-11450.09
2023-04-02T10:13:28.994Z,-11440.78
2023-04-02T10:16:41.702Z,-11443.47
2023-04-02T10:19:52.481Z,-11453.03
2023-04-02T10:22:58.654Z,-11457.56
2023-04-02T10:26:23.070Z,-11441.06
2023-04-02T10:30:02.647Z,-11443.19
2023-04-02T10:33:19.639Z,-11437.41
2023-04-02T10:36:37.431Z,-11445.44
2023-04-02T10:39:50.347Z,-11434.16
2023-04-02T10:43:22.366Z,-11463.19
2023-04-02T10:46:37.385Z,-11468.97
2023-04-02T10:49:51.993Z,-11485.19
2023-04-02T10:53:07.528Z,-11445.72
2023-04-02T10:56:14.687Z,-11447.53
2023-04-02T10:59:25.554Z,-11458.41
2023-04-02T11:02:37.576Z,-11489.44
2023-04-02T11:05:48.692Z,-11440.22
2023-04-02T11:09:00.166Z,-11456.44
2023-04-02T11:12:07.921Z,-11450.50
2023-04-02T11:15:17.370Z,-11432.75
2023-04-02T11:18:26.291Z,-11443.88
2023-04-02T11:21:57.271Z,-11432.03
2023-04-02T11:25:06.123Z,-11454.88
2023-04-02T11:28:27.247Z,-11450.50
2023-04-02T11:31:34.478Z,-11457.84
2023-04-02T11:35:07.605Z,-11475.63
2023-04-02T11:38:53.013Z,-11454.47
2023-04-02T11:42:06.753Z,-11461.94
2023-04-02T11:45:53.344Z,-11436.69
2023-04-02T11:49:58.506Z,-11441.19
2023-04-02T11:53:06.892Z,-11401.03
2023-04-02T11:56:28.845Z,-11472.09
2023-04-02T11:59:41.470Z,-11464.59
2023-04-02T12:03:04.622Z,-11448.09
2023-04-02T12:06:19.524Z,-11446.13
2023-04-02T12:09:28.505Z,-11489.84
2023-04-02T12:12:39.945Z,-11465.16
2023-04-02T12:15:47.743Z,-11484.34
2023-04-02T12:18:55.266Z,-11474.47
2023-04-02T12:22:01.910Z,-11442.06
2023-04-02T12:25:24.728Z,-11449.09
2023-04-02T12:28:33.937Z,-11420.63
2023-04-02T12:31:44.408Z,-11425.97
2023-04-02T12:34:52.566Z,-11425.69
2023-04-02T12:38:01.229Z,-11432.47
2023-04-02T12:41:27.517Z,-11403.72
2023-04-02T12:44:34.972Z,-11420.47
2023-04-02T12:47:46.637Z,-11400.03
2023-04-02T12:50:53.532Z,-11423.72
2023-04-02T12:53:59.804Z,-11423.31
2023-04-02T12:57:23.418Z,-11420.75
2023-04-02T13:00:34.385Z,-11413.28
2023-04-02T13:03:41.188Z,-11423.31
2023-04-02T13:06:55.012Z,-11436.41
2023-04-02T13:10:02.930Z,-11450.22
2023-04-02T13:13:17.723Z,-11420.91
2023-04-02T13:16:35.711Z,-11427.09
2023-04-02T13:19:41.839Z,-11434.16
2023-04-02T13:22:48.055Z,-11426.69
2023-04-02T13:25:54.593Z,-11412.16
2023-04-02T13:29:02.761Z,-11395.12
2023-04-02T13:32:14.074Z,-11400.75
2023-04-02T13:35:20.116Z,-11394.97
2023-04-02T13:38:26.380Z,-11398.63
2023-04-02T13:41:35.284Z,-11400.03
2023-04-02T13:44:41.550Z,-11402.00
2023-04-02T13:47:48.866Z,-11416.66
2023-04-02T13:50:55.159Z,-11401.16
2023-04-02T13:54:01.285Z,-11418.38
2023-04-02T13:57:07.563Z,-11403.16
2023-04-02T14:00:15.019Z,-11420.19
2023-04-02T14:03:25.063Z,-11415.81
2023-04-02T14:06:49.651Z,-11408.06
2023-04-02T14:10:04.198Z,-11397.22
2023-04-02T14:13:25.181Z,-11406.81
2023-04-02T14:16:56.868Z,-11411.88
2023-04-02T14:20:23.299Z,-11403.72
2023-04-02T14:23:47.057Z,-11392.84
2023-04-02T14:27:04.793Z,-11382.56
2023-04-02T14:30:18.682Z,-11379.47
2023-04-02T14:33:36.373Z,-11382.84
2023-04-02T14:36:56.606Z,-11377.63
2023-04-02T14:40:15.258Z,-11388.47
2023-04-02T14:43:25.149Z,-11375.81
2023-04-02T14:46:35.527Z,-11384.25
2023-04-02T14:49:46.574Z,-11379.47
2023-04-02T14:52:58.187Z,-11374.25
2023-04-02T14:56:09.461Z,-11372.72
2023-04-02T14:59:26.946Z,-11367.06
2023-04-02T15:02:42.610Z,-11367.91
2023-04-02T15:05:51.155Z,-11360.16
2023-04-02T15:09:09.348Z,-11357.34
2023-04-02T15:12:23.208Z,-11368.91
2023-04-02T15:15:41.107Z,-11361.44
2023-04-02T15:18:47.888Z,-11369.03
2023-04-02T15:22:32.324Z,-11380.31
2023-04-02T15:25:48.749Z,-11368.34
2023-04-02T15:29:04.032Z,-11380.31
2023-04-02T15:32:25.158Z,-11374.13
2023-04-02T15:35:41.801Z,-11363.13
2023-04-02T15:38:53.470Z,-11359.19
2023-04-02T15:42:14.845Z,-11364.81
2023-04-02T15:45:30.617Z,-11372.84
2023-04-02T15:49:11.407Z,-11358.47
2023-04-02T15:52:26.819Z,-11352.41
2023-04-02T15:55:40.158Z,-11358.19
2023-04-02T15:59:20.602Z,-11359.87
2023-04-02T16:02:44.665Z,-11350.03
2023-04-02T16:06:10.828Z,-11338.63
2023-04-02T16:09:28.274Z,-11340.88
2023-04-02T16:12:36.217Z,-11330.44
2023-04-02T16:15:47.344Z,-11336.38
2023-04-02T16:19:00.326Z,-11336.38
2023-04-02T16:22:13.477Z,-11333.56
2023-04-02T16:25:23.009Z,-11330.16
2023-04-02T16:28:34.901Z,-11324.25
2023-04-02T16:31:51.525Z,-11311.84
2023-04-02T16:35:22.254Z,-11316.94
2023-04-02T16:38:45.304Z,-11312.72
2023-04-02T16:42:01.978Z,-11308.63
2023-04-02T16:45:25.775Z,-11303.69
2023-04-02T16:48:45.706Z,-11298.06
2023-04-02T16:52:04.107Z,-11299.75
2023-04-02T16:55:25.847Z,-11286.50
2023-04-02T16:58:44.827Z,-11280.59
2023-04-02T17:01:58.421Z,-11279.63
2023-04-02T17:05:18.318Z,-11278.34
2023-04-02T17:08:26.132Z,-11274.41
2023-04-02T17:11:41.522Z,-11267.66
2023-04-02T17:14:53.302Z,-11264.28
2023-04-02T17:18:01.909Z,-11263.88
2023-04-02T17:21:15.287Z,-11256.97
2023-04-02T17:24:26.347Z,-11259.78
2023-04-02T17:27:36.922Z,-11249.66
2023-04-02T17:30:47.617Z,-11252.19
2023-04-02T17:33:54.281Z,-11237.13
2023-04-02T17:37:13.258Z,-11245.44
2023-04-02T17:40:27.533Z,-11239.94
2023-04-02T17:43:44.890Z,-11237.84
2023-04-02T17:47:00.339Z,-11231.50
2023-04-02T17:50:29.516Z,-11231.06
2023-04-02T17:53:45.312Z,-11231.91
2023-04-02T17:57:08.100Z,-11221.38
2023-04-02T18:00:44.689Z,-11228.81
2023-04-02T18:04:08.474Z,-11224.03
2023-04-02T18:07:30.131Z,-11219.81
2023-04-02T18:10:47.973Z,-11218.69
2023-04-02T18:14:00.005Z,-11220.25
2023-04-02T18:17:12.048Z,-11220.09
2023-04-02T18:20:27.656Z,-11214.47
2023-04-02T18:23:45.159Z,-11219.81
2023-04-02T18:27:02.345Z,-11224.88
2023-04-02T18:30:19.218Z,-11211.09
2023-04-02T18:33:44.352Z,-11205.34
2023-04-02T18:37:06.255Z,-11198.72
2023-04-02T18:40:39.861Z,-11198.44
2023-04-02T18:43:59.992Z,-11209.97
2023-04-02T18:47:16.264Z,-11201.41
2023-04-02T18:50:29.436Z,-11194.50
2023-04-02T18:53:36.170Z,-11191.41
2023-04-02T18:56:44.067Z,-11191.00
2023-04-02T18:59:58.807Z,-11195.91
2023-04-02T19:03:12.380Z,-11179.03
2023-04-02T19:06:23.131Z,-11172.88
2023-04-02T19:09:34.021Z,-11177.63
2023-04-02T19:12:40.288Z,-11182.00
2023-04-02T19:16:11.126Z,-11179.59
2023-04-02T19:19:21.145Z,-11178.06
2023-04-02T19:22:38.646Z,-11175.25
2023-04-02T19:25:58.150Z,-11175.81
2023-04-02T19:29:17.465Z,-11179.59
2023-04-02T19:32:37.454Z,-11178.34
2023-04-02T19:35:49.003Z,-11177.63
2023-04-02T19:39:04.722Z,-11170.75
2023-04-02T19:42:20.441Z,-11167.81
2023-04-02T19:45:34.760Z,-11165.69
2023-04-02T19:48:49.063Z,-11166.69
2023-04-02T19:51:56.010Z,-11162.19
2023-04-02T19:55:02.116Z,-11161.47
2023-04-02T19:58:18.882Z,-11139.13
2023-04-02T20:01:25.806Z,-11129.88
2023-04-02T20:04:33.574Z,-11107.41
2023-04-02T20:07:40.372Z,-11124.53
2023-04-02T20:10:47.481Z,-11129.59
2023-04-02T20:13:53.975Z,-11121.84
2023-04-02T20:17:00.545Z,-11135.06
2023-04-02T20:20:10.815Z,-11140.81
2023-04-02T20:23:18.004Z,-11146.00
2023-04-02T20:26:24.173Z,-11155.56
2023-04-02T20:29:32.400Z,-11145.31
2023-04-02T20:32:38.978Z,-11142.66
2023-04-02T20:35:46.808Z,-11137.88
2023-04-02T20:38:53.735Z,-11137.16
2023-04-02T20:42:02.966Z,-11124.53
2023-04-02T20:45:10.817Z,-11139.84
2023-04-02T20:48:17.093Z,-11131.41
2023-04-02T20:51:24.552Z,-11133.38
2023-04-02T20:54:31.107Z,-11131.53
2023-04-02T20:57:37.566Z,-11135.75
2023-04-02T21:00:43.824Z,-11141.66
2023-04-02T21:03:51.074Z,-11138.72
2023-04-02T21:06:58.893Z,-11121.44
2023-04-02T21:10:05.937Z,-11106.28
2023-04-02T21:13:12.134Z,-11102.34
2023-04-02T21:16:20.573Z,-11094.59
2023-04-02T21:19:27.754Z,-11104.03
2023-04-02T21:22:35.939Z,-11106.97
2023-04-02T21:25:42.300Z,-11095.72
2023-04-02T21:28:48.580Z,-11094.88
2023-04-02T21:31:54.984Z,-11095.03
2023-04-02T21:35:01.035Z,-11115.81
2023-04-02T21:38:08.793Z,-11122.00
2023-04-02T21:41:17.064Z,-11119.59
2023-04-02T21:44:24.744Z,-11119.88
2023-04-02T21:47:31.216Z,-11119.31
2023-04-02T21:50:37.487Z,-11119.59
2023-04-02T21:53:46.394Z,-11119.59
2023-04-02T21:56:52.663Z,-11120.03
2023-04-02T21:59:59.696Z,-11126.06
2023-04-02T22:03:06.403Z,-11118.34
2023-04-02T22:06:15.197Z,-11114.00
2023-04-02T22:09:24.927Z,-11115.69
2023-04-02T22:12:31.267Z,-11105.44
2023-04-02T22:15:37.505Z,-11111.03
2023-04-02T22:18:44.623Z,-11095.03
2023-04-02T22:21:50.849Z,-11073.69
2023-04-02T22:25:00.388Z,-11064.16
2023-04-02T22:28:06.991Z,-11078.03
2023-04-02T22:31:15.721Z,-11093.50
2023-04-02T22:34:22.330Z,-11105.44
2023-04-02T22:37:29.140Z,-11098.41
2023-04-02T22:40:37.359Z,-11072.28
2023-04-02T22:43:46.874Z,-11053.47
2023-04-02T22:46:52.954Z,-11068.63
2023-04-02T22:49:59.352Z,-11089.13
2023-04-02T22:53:05.575Z,-11097.00
2023-04-02T22:56:14.823Z,-11097.84
2023-04-02T22:59:20.803Z,-11093.91
2023-04-02T23:02:27.609Z,-11087.03
2023-04-02T23:05:33.919Z,-11085.91
2023-04-02T23:08:40.888Z,-11070.19
2023-04-02T23:11:48.426Z,-11077.06
2023-04-02T23:14:57.220Z,-11085.34
2023-04-02T23:18:03.769Z,-11067.50
2023-04-02T23:21:10.678Z,-11071.16
2023-04-02T23:24:17.370Z,-11073.28
2023-04-02T23:27:25.182Z,-11085.47
2023-04-02T23:30:31.322Z,-11091.09
2023-04-02T23:33:37.621Z,-11098.13
2023-04-02T23:36:44.065Z,-11089.41
2023-04-02T23:39:50.554Z,-11086.75
2023-04-02T23:42:58.494Z,-11093.63
2023-04-02T23:46:04.857Z,-11073.00
2023-04-02T23:49:13.045Z,-11076.50
2023-04-02T23:52:19.234Z,-11080.72
2023-04-02T23:55:25.453Z,-11068.06
2023-04-02T23:58:33.435Z,-11040.44
